sensor_id;sensor_type;location;lat;lon;timestamp;P1;durP1;ratioP1;P2;durP2;ratioP2
76210;SDS011;65003;49.518;11.280;2022-12-10T00:02:18;18.50;;;10.77;;
76210;SDS011;65003;49.518;11.280;2022-12-10T00:04:45;20.57;;;11.77;;
76210;SDS011;65003;49.518;11.280;2022-12-10T00:07:12;25.93;;;11.43;;
76210;SDS011;65003;49.518;11.280;2022-12-10T00:09:38;17.27;;;11.03;;
76210;SDS011;65003;49.518;11.280;2022-12-10T00:12:05;17.23;;;10.57;;
76210;SDS011;65003;49.518;11.280;2022-12-10T00:14:31;17.87;;;10.93;;
76210;SDS011;65003;49.518;11.280;2022-12-10T00:16:58;15.73;;;9.97;;
76210;SDS011;65003;49.518;11.280;2022-12-10T00:19:25;17.40;;;10.97;;
76210;SDS011;65003;49.518;11.280;2022-12-10T00:21:51;19.60;;;11.53;;
76210;SDS011;65003;49.518;11.280;2022-12-10T00:24:18;19.60;;;11.20;;
76210;SDS011;65003;49.518;11.280;2022-12-10T00:26:44;20.63;;;11.10;;
76210;SDS011;65003;49.518;11.280;2022-12-10T00:29:11;17.73;;;10.40;;
76210;SDS011;65003;49.518;11.280;2022-12-10T00:31:38;24.00;;;10.93;;
76210;SDS011;65003;49.518;11.280;2022-12-10T00:34:05;20.67;;;11.87;;
76210;SDS011;65003;49.518;11.280;2022-12-10T00:36:32;18.03;;;11.23;;
76210;SDS011;65003;49.518;11.280;2022-12-10T00:38:58;19.93;;;11.33;;
76210;SDS011;65003;49.518;11.280;2022-12-10T00:41:25;22.30;;;12.20;;
76210;SDS011;65003;49.518;11.280;2022-12-10T00:43:51;22.47;;;12.13;;
76210;SDS011;65003;49.518;11.280;2022-12-10T00:46:18;23.70;;;12.00;;
76210;SDS011;65003;49.518;11.280;2022-12-10T00:48:45;18.57;;;11.30;;
76210;SDS011;65003;49.518;11.280;2022-12-10T00:51:12;17.10;;;11.13;;
76210;SDS011;65003;49.518;11.280;2022-12-10T00:53:38;19.73;;;11.57;;
76210;SDS011;65003;49.518;11.280;2022-12-10T00:56:04;19.80;;;11.53;;
76210;SDS011;65003;49.518;11.280;2022-12-10T00:58:32;18.10;;;11.63;;
76210;SDS011;65003;49.518;11.280;2022-12-10T01:03:34;21.53;;;12.37;;
76210;SDS011;65003;49.518;11.280;2022-12-10T01:06:07;18.00;;;11.57;;
76210;SDS011;65003;49.518;11.280;2022-12-10T01:08:33;18.73;;;11.47;;
76210;SDS011;65003;49.518;11.280;2022-12-10T01:10:59;18.23;;;11.13;;
76210;SDS011;65003;49.518;11.280;2022-12-10T01:13:26;19.43;;;12.13;;
76210;SDS011;65003;49.518;11.280;2022-12-10T01:15:53;17.63;;;11.07;;
76210;SDS011;65003;49.518;11.280;2022-12-10T01:18:19;20.27;;;12.17;;
76210;SDS011;65003;49.518;11.280;2022-12-10T01:20:46;18.67;;;10.90;;
76210;SDS011;65003;49.518;11.280;2022-12-10T01:23:12;22.47;;;12.43;;
76210;SDS011;65003;49.518;11.280;2022-12-10T01:25:39;18.27;;;11.60;;
76210;SDS011;65003;49.518;11.280;2022-12-10T01:28:06;25.07;;;12.93;;
76210;SDS011;65003;49.518;11.280;2022-12-10T01:30:32;24.27;;;11.40;;
76210;SDS011;65003;49.518;11.280;2022-12-10T01:32:59;23.17;;;12.63;;
76210;SDS011;65003;49.518;11.280;2022-12-10T01:35:25;20.23;;;12.60;;
76210;SDS011;65003;49.518;11.280;2022-12-10T01:37:52;25.37;;;12.03;;
76210;SDS011;65003;49.518;11.280;2022-12-10T01:40:18;22.03;;;12.63;;
76210;SDS011;65003;49.518;11.280;2022-12-10T01:42:45;29.60;;;13.90;;
76210;SDS011;65003;49.518;11.280;2022-12-10T01:45:12;29.20;;;13.43;;
76210;SDS011;65003;49.518;11.280;2022-12-10T01:47:38;29.97;;;12.57;;
76210;SDS011;65003;49.518;11.280;2022-12-10T01:50:06;25.03;;;11.50;;
76210;SDS011;65003;49.518;11.280;2022-12-10T01:52:32;24.73;;;11.70;;
76210;SDS011;65003;49.518;11.280;2022-12-10T01:54:58;20.10;;;10.50;;
76210;SDS011;65003;49.518;11.280;2022-12-10T01:57:26;20.90;;;10.03;;
76210;SDS011;65003;49.518;11.280;2022-12-10T01:59:53;18.57;;;10.50;;
76210;SDS011;65003;49.518;11.280;2022-12-10T02:02:26;18.57;;;10.83;;
76210;SDS011;65003;49.518;11.280;2022-12-10T02:05:01;15.53;;;9.50;;
76210;SDS011;65003;49.518;11.280;2022-12-10T02:08:33;17.33;;;10.20;;
76210;SDS011;65003;49.518;11.280;2022-12-10T02:10:17;16.67;;;10.07;;
76210;SDS011;65003;49.518;11.280;2022-12-10T02:12:46;17.63;;;10.27;;
76210;SDS011;65003;49.518;11.280;2022-12-10T02:15:15;19.13;;;10.63;;
76210;SDS011;65003;49.518;11.280;2022-12-10T02:17:45;17.67;;;9.80;;
76210;SDS011;65003;49.518;11.280;2022-12-10T02:20:19;18.47;;;10.07;;
76210;SDS011;65003;49.518;11.280;2022-12-10T02:23:06;18.43;;;11.33;;
76210;SDS011;65003;49.518;11.280;2022-12-10T02:25:39;19.57;;;10.63;;
76210;SDS011;65003;49.518;11.280;2022-12-10T02:31:00;16.83;;;10.63;;
76210;SDS011;65003;49.518;11.280;2022-12-10T02:33:26;18.73;;;10.83;;
76210;SDS011;65003;49.518;11.280;2022-12-10T02:35:53;18.13;;;10.40;;
76210;SDS011;65003;49.518;11.280;2022-12-10T02:38:23;18.47;;;10.90;;
76210;SDS011;65003;49.518;11.280;2022-12-10T02:40:51;15.63;;;10.20;;
76210;SDS011;65003;49.518;11.280;2022-12-10T02:43:16;17.63;;;10.80;;
76210;SDS011;65003;49.518;11.280;2022-12-10T02:45:43;18.67;;;11.07;;
76210;SDS011;65003;49.518;11.280;2022-12-10T02:48:10;17.03;;;10.43;;
76210;SDS011;65003;49.518;11.280;2022-12-10T02:50:36;24.90;;;10.97;;
76210;SDS011;65003;49.518;11.280;2022-12-10T02:53:03;21.40;;;11.07;;
76210;SDS011;65003;49.518;11.280;2022-12-10T02:55:30;21.70;;;11.10;;
76210;SDS011;65003;49.518;11.280;2022-12-10T02:58:34;17.43;;;11.33;;
76210;SDS011;65003;49.518;11.280;2022-12-10T03:00:50;19.10;;;10.63;;
76210;SDS011;65003;49.518;11.280;2022-12-10T03:03:22;18.60;;;10.60;;
76210;SDS011;65003;49.518;11.280;2022-12-10T03:05:47;16.73;;;10.23;;
76210;SDS011;65003;49.518;11.280;2022-12-10T03:08:18;18.97;;;11.47;;
76210;SDS011;65003;49.518;11.280;2022-12-10T03:10:48;20.53;;;11.83;;
76210;SDS011;65003;49.518;11.280;2022-12-10T03:13:11;21.40;;;12.43;;
76210;SDS011;65003;49.518;11.280;2022-12-10T03:15:38;19.87;;;12.00;;
76210;SDS011;65003;49.518;11.280;2022-12-10T03:18:04;17.07;;;11.03;;
76210;SDS011;65003;49.518;11.280;2022-12-10T03:20:31;16.30;;;10.67;;
76210;SDS011;65003;49.518;11.280;2022-12-10T03:22:58;19.67;;;11.23;;
76210;SDS011;65003;49.518;11.280;2022-12-10T03:25:25;19.50;;;11.53;;
76210;SDS011;65003;49.518;11.280;2022-12-10T03:27:51;17.67;;;11.60;;
76210;SDS011;65003;49.518;11.280;2022-12-10T03:30:18;17.27;;;11.20;;
76210;SDS011;65003;49.518;11.280;2022-12-10T03:32:44;17.13;;;10.57;;
76210;SDS011;65003;49.518;11.280;2022-12-10T03:35:11;17.83;;;11.00;;
76210;SDS011;65003;49.518;11.280;2022-12-10T03:37:37;18.67;;;10.93;;
76210;SDS011;65003;49.518;11.280;2022-12-10T03:40:04;19.97;;;11.60;;
76210;SDS011;65003;49.518;11.280;2022-12-10T03:42:32;16.37;;;10.73;;
76210;SDS011;65003;49.518;11.280;2022-12-10T03:44:58;18.50;;;11.17;;
76210;SDS011;65003;49.518;11.280;2022-12-10T03:47:25;19.70;;;10.97;;
76210;SDS011;65003;49.518;11.280;2022-12-10T03:49:51;17.53;;;10.83;;
76210;SDS011;65003;49.518;11.280;2022-12-10T03:52:18;18.63;;;11.33;;
76210;SDS011;65003;49.518;11.280;2022-12-10T03:54:45;18.97;;;10.73;;
76210;SDS011;65003;49.518;11.280;2022-12-10T03:57:11;19.13;;;11.00;;
76210;SDS011;65003;49.518;11.280;2022-12-10T03:59:38;17.17;;;10.03;;
76210;SDS011;65003;49.518;11.280;2022-12-10T04:02:04;20.13;;;11.70;;
76210;SDS011;65003;49.518;11.280;2022-12-10T04:04:31;16.37;;;10.53;;
76210;SDS011;65003;49.518;11.280;2022-12-10T04:06:58;19.47;;;11.27;;
76210;SDS011;65003;49.518;11.280;2022-12-10T04:09:24;20.50;;;11.03;;
76210;SDS011;65003;49.518;11.280;2022-12-10T04:11:54;18.97;;;11.00;;
76210;SDS011;65003;49.518;11.280;2022-12-10T04:14:17;20.17;;;10.77;;
76210;SDS011;65003;49.518;11.280;2022-12-10T04:16:49;15.93;;;10.67;;
76210;SDS011;65003;49.518;11.280;2022-12-10T04:19:17;18.03;;;11.97;;
76210;SDS011;65003;49.518;11.280;2022-12-10T04:21:43;17.97;;;11.03;;
76210;SDS011;65003;49.518;11.280;2022-12-10T04:24:15;18.20;;;11.47;;
76210;SDS011;65003;49.518;11.280;2022-12-10T04:26:47;20.43;;;11.47;;
76210;SDS011;65003;49.518;11.280;2022-12-10T04:29:22;19.20;;;11.07;;
76210;SDS011;65003;49.518;11.280;2022-12-10T04:31:48;17.97;;;10.40;;
76210;SDS011;65003;49.518;11.280;2022-12-10T04:34:14;18.67;;;11.07;;
76210;SDS011;65003;49.518;11.280;2022-12-10T04:36:41;19.33;;;10.73;;
76210;SDS011;65003;49.518;11.280;2022-12-10T04:39:08;22.10;;;11.67;;
76210;SDS011;65003;49.518;11.280;2022-12-10T04:41:34;17.63;;;10.60;;
76210;SDS011;65003;49.518;11.280;2022-12-10T04:44:01;18.03;;;10.67;;
76210;SDS011;65003;49.518;11.280;2022-12-10T04:46:27;17.00;;;10.33;;
76210;SDS011;65003;49.518;11.280;2022-12-10T04:48:54;17.73;;;11.23;;
76210;SDS011;65003;49.518;11.280;2022-12-10T04:51:21;19.80;;;11.67;;
76210;SDS011;65003;49.518;11.280;2022-12-10T04:53:47;17.53;;;11.20;;
76210;SDS011;65003;49.518;11.280;2022-12-10T04:56:14;18.50;;;11.67;;
76210;SDS011;65003;49.518;11.280;2022-12-10T04:58:40;22.17;;;11.30;;
76210;SDS011;65003;49.518;11.280;2022-12-10T05:01:08;21.33;;;12.00;;
76210;SDS011;65003;49.518;11.280;2022-12-10T05:03:33;21.50;;;11.63;;
76210;SDS011;65003;49.518;11.280;2022-12-10T05:06:01;24.50;;;11.60;;
76210;SDS011;65003;49.518;11.280;2022-12-10T05:08:27;23.90;;;12.10;;
76210;SDS011;65003;49.518;11.280;2022-12-10T05:10:54;21.67;;;12.10;;
76210;SDS011;65003;49.518;11.280;2022-12-10T05:13:20;27.87;;;13.17;;
76210;SDS011;65003;49.518;11.280;2022-12-10T05:15:47;24.40;;;12.67;;
76210;SDS011;65003;49.518;11.280;2022-12-10T05:18:14;21.27;;;12.70;;
76210;SDS011;65003;49.518;11.280;2022-12-10T05:20:40;21.93;;;12.93;;
76210;SDS011;65003;49.518;11.280;2022-12-10T05:23:07;20.87;;;11.40;;
76210;SDS011;65003;49.518;11.280;2022-12-10T05:25:39;20.37;;;12.27;;
76210;SDS011;65003;49.518;11.280;2022-12-10T05:28:22;25.17;;;13.07;;
76210;SDS011;65003;49.518;11.280;2022-12-10T05:30:49;25.57;;;15.20;;
76210;SDS011;65003;49.518;11.280;2022-12-10T05:33:15;23.13;;;13.20;;
76210;SDS011;65003;49.518;11.280;2022-12-10T05:35:42;18.57;;;11.80;;
76210;SDS011;65003;49.518;11.280;2022-12-10T05:38:08;22.47;;;12.70;;
76210;SDS011;65003;49.518;11.280;2022-12-10T05:40:36;20.90;;;12.07;;
76210;SDS011;65003;49.518;11.280;2022-12-10T05:43:02;19.50;;;10.63;;
76210;SDS011;65003;49.518;11.280;2022-12-10T05:45:31;21.20;;;11.80;;
76210;SDS011;65003;49.518;11.280;2022-12-10T05:47:55;19.63;;;12.30;;
76210;SDS011;65003;49.518;11.280;2022-12-10T05:50:22;19.63;;;11.33;;
76210;SDS011;65003;49.518;11.280;2022-12-10T05:52:49;24.07;;;12.90;;
76210;SDS011;65003;49.518;11.280;2022-12-10T05:55:15;18.40;;;11.87;;
76210;SDS011;65003;49.518;11.280;2022-12-10T05:57:42;19.23;;;12.23;;
76210;SDS011;65003;49.518;11.280;2022-12-10T06:00:09;18.13;;;11.83;;
76210;SDS011;65003;49.518;11.280;2022-12-10T06:02:35;19.30;;;11.73;;
76210;SDS011;65003;49.518;11.280;2022-12-10T06:05:02;17.47;;;11.70;;
76210;SDS011;65003;49.518;11.280;2022-12-10T06:07:29;20.83;;;11.90;;
76210;SDS011;65003;49.518;11.280;2022-12-10T06:09:55;17.67;;;10.63;;
76210;SDS011;65003;49.518;11.280;2022-12-10T06:12:22;19.80;;;11.57;;
76210;SDS011;65003;49.518;11.280;2022-12-10T06:14:49;19.47;;;12.20;;
76210;SDS011;65003;49.518;11.280;2022-12-10T06:17:15;21.63;;;12.10;;
76210;SDS011;65003;49.518;11.280;2022-12-10T06:19:42;19.67;;;12.53;;
76210;SDS011;65003;49.518;11.280;2022-12-10T06:22:08;20.10;;;11.77;;
76210;SDS011;65003;49.518;11.280;2022-12-10T06:24:35;21.70;;;11.43;;
76210;SDS011;65003;49.518;11.280;2022-12-10T06:27:01;19.17;;;11.30;;
76210;SDS011;65003;49.518;11.280;2022-12-10T06:29:28;18.10;;;11.17;;
76210;SDS011;65003;49.518;11.280;2022-12-10T06:31:55;20.77;;;11.90;;
76210;SDS011;65003;49.518;11.280;2022-12-10T06:34:21;19.70;;;12.50;;
76210;SDS011;65003;49.518;11.280;2022-12-10T06:36:48;18.37;;;11.80;;
76210;SDS011;65003;49.518;11.280;2022-12-10T06:39:14;21.87;;;11.40;;
76210;SDS011;65003;49.518;11.280;2022-12-10T06:41:41;21.40;;;12.00;;
76210;SDS011;65003;49.518;11.280;2022-12-10T06:44:08;17.30;;;11.50;;
76210;SDS011;65003;49.518;11.280;2022-12-10T06:46:34;23.00;;;12.27;;
76210;SDS011;65003;49.518;11.280;2022-12-10T06:49:01;21.33;;;13.40;;
76210;SDS011;65003;49.518;11.280;2022-12-10T06:51:27;25.13;;;12.97;;
76210;SDS011;65003;49.518;11.280;2022-12-10T06:53:54;22.50;;;12.77;;
76210;SDS011;65003;49.518;11.280;2022-12-10T06:56:20;27.03;;;13.23;;
76210;SDS011;65003;49.518;11.280;2022-12-10T06:58:47;24.40;;;13.47;;
76210;SDS011;65003;49.518;11.280;2022-12-10T07:01:15;26.00;;;12.70;;
76210;SDS011;65003;49.518;11.280;2022-12-10T07:03:41;22.10;;;12.80;;
76210;SDS011;65003;49.518;11.280;2022-12-10T07:06:08;21.97;;;12.43;;
76210;SDS011;65003;49.518;11.280;2022-12-10T07:08:35;23.73;;;13.70;;
76210;SDS011;65003;49.518;11.280;2022-12-10T07:11:04;23.03;;;12.87;;
76210;SDS011;65003;49.518;11.280;2022-12-10T07:13:30;21.93;;;13.83;;
76210;SDS011;65003;49.518;11.280;2022-12-10T07:15:57;22.60;;;13.27;;
76210;SDS011;65003;49.518;11.280;2022-12-10T07:18:24;24.33;;;13.70;;
76210;SDS011;65003;49.518;11.280;2022-12-10T07:20:50;23.53;;;13.37;;
76210;SDS011;65003;49.518;11.280;2022-12-10T07:23:17;22.67;;;13.33;;
76210;SDS011;65003;49.518;11.280;2022-12-10T07:25:43;25.07;;;13.33;;
76210;SDS011;65003;49.518;11.280;2022-12-10T07:28:10;20.47;;;12.37;;
76210;SDS011;65003;49.518;11.280;2022-12-10T07:30:37;21.97;;;13.67;;
76210;SDS011;65003;49.518;11.280;2022-12-10T07:33:04;24.87;;;13.33;;
76210;SDS011;65003;49.518;11.280;2022-12-10T07:35:30;21.83;;;13.80;;
76210;SDS011;65003;49.518;11.280;2022-12-10T07:37:57;41.77;;;23.97;;
76210;SDS011;65003;49.518;11.280;2022-12-10T07:40:24;29.53;;;16.63;;
76210;SDS011;65003;49.518;11.280;2022-12-10T07:42:50;26.50;;;14.90;;
76210;SDS011;65003;49.518;11.280;2022-12-10T07:45:17;27.53;;;16.10;;
76210;SDS011;65003;49.518;11.280;2022-12-10T07:47:43;25.50;;;15.27;;
76210;SDS011;65003;49.518;11.280;2022-12-10T07:50:10;24.50;;;14.33;;
76210;SDS011;65003;49.518;11.280;2022-12-10T07:52:37;31.17;;;17.60;;
76210;SDS011;65003;49.518;11.280;2022-12-10T07:55:03;28.20;;;16.10;;
76210;SDS011;65003;49.518;11.280;2022-12-10T07:57:31;38.03;;;23.27;;
76210;SDS011;65003;49.518;11.280;2022-12-10T07:59:57;26.93;;;17.20;;
76210;SDS011;65003;49.518;11.280;2022-12-10T08:02:23;35.60;;;23.67;;
76210;SDS011;65003;49.518;11.280;2022-12-10T08:04:50;45.17;;;28.17;;
76210;SDS011;65003;49.518;11.280;2022-12-10T08:07:16;38.37;;;25.20;;
76210;SDS011;65003;49.518;11.280;2022-12-10T08:09:43;26.07;;;16.63;;
76210;SDS011;65003;49.518;11.280;2022-12-10T08:12:10;28.77;;;16.10;;
76210;SDS011;65003;49.518;11.280;2022-12-10T08:14:36;45.93;;;26.90;;
76210;SDS011;65003;49.518;11.280;2022-12-10T08:17:03;35.80;;;20.93;;
76210;SDS011;65003;49.518;11.280;2022-12-10T08:19:29;26.80;;;15.93;;
76210;SDS011;65003;49.518;11.280;2022-12-10T08:21:56;28.07;;;17.50;;
76210;SDS011;65003;49.518;11.280;2022-12-10T08:24:23;31.57;;;19.57;;
76210;SDS011;65003;49.518;11.280;2022-12-10T08:26:49;21.67;;;15.20;;
76210;SDS011;65003;49.518;11.280;2022-12-10T08:29:16;26.80;;;16.73;;
76210;SDS011;65003;49.518;11.280;2022-12-10T08:31:42;31.60;;;19.20;;
76210;SDS011;65003;49.518;11.280;2022-12-10T08:34:13;30.80;;;19.80;;
76210;SDS011;65003;49.518;11.280;2022-12-10T08:36:39;25.50;;;15.60;;
76210;SDS011;65003;49.518;11.280;2022-12-10T08:39:06;34.53;;;17.93;;
76210;SDS011;65003;49.518;11.280;2022-12-10T08:41:32;34.30;;;22.30;;
76210;SDS011;65003;49.518;11.280;2022-12-10T08:43:59;24.60;;;14.73;;
76210;SDS011;65003;49.518;11.280;2022-12-10T08:46:25;30.17;;;19.90;;
76210;SDS011;65003;49.518;11.280;2022-12-10T08:48:52;24.83;;;14.33;;
76210;SDS011;65003;49.518;11.280;2022-12-10T08:51:19;20.20;;;12.33;;
76210;SDS011;65003;49.518;11.280;2022-12-10T08:53:45;25.77;;;14.83;;
76210;SDS011;65003;49.518;11.280;2022-12-10T08:56:12;35.17;;;25.23;;
76210;SDS011;65003;49.518;11.280;2022-12-10T08:58:39;32.50;;;20.83;;
76210;SDS011;65003;49.518;11.280;2022-12-10T09:01:06;38.77;;;23.33;;
76210;SDS011;65003;49.518;11.280;2022-12-10T09:03:33;28.03;;;16.73;;
76210;SDS011;65003;49.518;11.280;2022-12-10T09:06:02;22.23;;;14.40;;
76210;SDS011;65003;49.518;11.280;2022-12-10T09:08:27;28.93;;;16.40;;
76210;SDS011;65003;49.518;11.280;2022-12-10T09:10:54;42.90;;;26.90;;
76210;SDS011;65003;49.518;11.280;2022-12-10T09:13:21;39.20;;;23.40;;
76210;SDS011;65003;49.518;11.280;2022-12-10T09:15:49;29.13;;;16.30;;
76210;SDS011;65003;49.518;11.280;2022-12-10T09:18:15;27.17;;;17.63;;
76210;SDS011;65003;49.518;11.280;2022-12-10T09:20:42;24.07;;;16.70;;
76210;SDS011;65003;49.518;11.280;2022-12-10T09:23:09;26.27;;;16.13;;
76210;SDS011;65003;49.518;11.280;2022-12-10T09:25:36;29.65;;;17.87;;
76210;SDS011;65003;49.518;11.280;2022-12-10T09:28:02;27.70;;;16.83;;
76210;SDS011;65003;49.518;11.280;2022-12-10T09:30:29;28.07;;;17.67;;
76210;SDS011;65003;49.518;11.280;2022-12-10T09:32:55;32.43;;;18.40;;
76210;SDS011;65003;49.518;11.280;2022-12-10T09:35:22;34.57;;;18.03;;
76210;SDS011;65003;49.518;11.280;2022-12-10T09:37:49;36.27;;;20.33;;
76210;SDS011;65003;49.518;11.280;2022-12-10T09:40:16;40.60;;;22.23;;
76210;SDS011;65003;49.518;11.280;2022-12-10T09:43:04;29.17;;;18.00;;
76210;SDS011;65003;49.518;11.280;2022-12-10T09:45:35;30.77;;;17.47;;
76210;SDS011;65003;49.518;11.280;2022-12-10T09:48:06;22.50;;;15.10;;
76210;SDS011;65003;49.518;11.280;2022-12-10T09:53:12;22.03;;;14.60;;
76210;SDS011;65003;49.518;11.280;2022-12-10T09:55:38;22.80;;;14.10;;
76210;SDS011;65003;49.518;11.280;2022-12-10T09:58:04;26.60;;;15.17;;
76210;SDS011;65003;49.518;11.280;2022-12-10T10:00:34;24.43;;;14.77;;
76210;SDS011;65003;49.518;11.280;2022-12-10T10:02:58;22.97;;;13.87;;
76210;SDS011;65003;49.518;11.280;2022-12-10T10:05:27;26.27;;;14.57;;
76210;SDS011;65003;49.518;11.280;2022-12-10T10:07:54;24.50;;;14.90;;
76210;SDS011;65003;49.518;11.280;2022-12-10T10:10:23;27.43;;;17.90;;
76210;SDS011;65003;49.518;11.280;2022-12-10T10:12:52;48.43;;;31.47;;
76210;SDS011;65003;49.518;11.280;2022-12-10T10:15:20;50.93;;;34.37;;
76210;SDS011;65003;49.518;11.280;2022-12-10T10:17:45;30.43;;;18.67;;
76210;SDS011;65003;49.518;11.280;2022-12-10T10:20:12;22.20;;;15.93;;
76210;SDS011;65003;49.518;11.280;2022-12-10T10:22:39;38.30;;;25.23;;
76210;SDS011;65003;49.518;11.280;2022-12-10T10:25:07;29.90;;;18.37;;
76210;SDS011;65003;49.518;11.280;2022-12-10T10:27:32;27.70;;;18.60;;
76210;SDS011;65003;49.518;11.280;2022-12-10T10:30:01;38.37;;;26.30;;
76210;SDS011;65003;49.518;11.280;2022-12-10T10:32:28;114.77;;;63.57;;
76210;SDS011;65003;49.518;11.280;2022-12-10T10:34:55;119.77;;;63.63;;
76210;SDS011;65003;49.518;11.280;2022-12-10T10:37:26;37.97;;;24.20;;
76210;SDS011;65003;49.518;11.280;2022-12-10T10:39:53;25.73;;;16.00;;
76210;SDS011;65003;49.518;11.280;2022-12-10T10:42:35;59.53;;;35.97;;
76210;SDS011;65003;49.518;11.280;2022-12-10T10:45:05;38.93;;;24.43;;
76210;SDS011;65003;49.518;11.280;2022-12-10T10:47:32;39.10;;;23.03;;
76210;SDS011;65003;49.518;11.280;2022-12-10T10:49:57;33.67;;;21.90;;
76210;SDS011;65003;49.518;11.280;2022-12-10T10:52:25;34.63;;;22.73;;
76210;SDS011;65003;49.518;11.280;2022-12-10T10:54:50;30.27;;;18.77;;
76210;SDS011;65003;49.518;11.280;2022-12-10T10:57:33;28.07;;;18.23;;
76210;SDS011;65003;49.518;11.280;2022-12-10T11:00:05;27.13;;;16.20;;
76210;SDS011;65003;49.518;11.280;2022-12-10T11:02:34;28.23;;;17.37;;
76210;SDS011;65003;49.518;11.280;2022-12-10T11:05:05;30.47;;;18.90;;
76210;SDS011;65003;49.518;11.280;2022-12-10T11:07:34;25.00;;;15.77;;
76210;SDS011;65003;49.518;11.280;2022-12-10T11:10:00;27.33;;;17.77;;
76210;SDS011;65003;49.518;11.280;2022-12-10T11:12:36;27.53;;;17.60;;
76210;SDS011;65003;49.518;11.280;2022-12-10T11:15:28;30.03;;;17.33;;
76210;SDS011;65003;49.518;11.280;2022-12-10T11:17:33;27.83;;;15.37;;
76210;SDS011;65003;49.518;11.280;2022-12-10T11:20:19;27.30;;;16.87;;
76210;SDS011;65003;49.518;11.280;2022-12-10T11:22:59;24.73;;;14.47;;
76210;SDS011;65003;49.518;11.280;2022-12-10T11:25:44;29.50;;;17.17;;
76210;SDS011;65003;49.518;11.280;2022-12-10T11:29:00;35.60;;;18.27;;
76210;SDS011;65003;49.518;11.280;2022-12-10T11:31:13;28.87;;;16.63;;
76210;SDS011;65003;49.518;11.280;2022-12-10T11:33:41;30.17;;;17.77;;
76210;SDS011;65003;49.518;11.280;2022-12-10T11:36:30;27.63;;;18.30;;
76210;SDS011;65003;49.518;11.280;2022-12-10T11:39:05;29.07;;;16.57;;
76210;SDS011;65003;49.518;11.280;2022-12-10T11:41:34;28.93;;;17.47;;
76210;SDS011;65003;49.518;11.280;2022-12-10T11:44:12;25.70;;;16.47;;
76210;SDS011;65003;49.518;11.280;2022-12-10T11:46:38;28.80;;;17.10;;
76210;SDS011;65003;49.518;11.280;2022-12-10T11:50:13;31.13;;;18.40;;
76210;SDS011;65003;49.518;11.280;2022-12-10T11:51:49;36.73;;;22.70;;
76210;SDS011;65003;49.518;11.280;2022-12-10T11:54:20;32.60;;;19.07;;
76210;SDS011;65003;49.518;11.280;2022-12-10T11:56:49;31.63;;;18.77;;
76210;SDS011;65003;49.518;11.280;2022-12-10T11:59:16;32.03;;;18.30;;
76210;SDS011;65003;49.518;11.280;2022-12-10T12:01:56;29.37;;;17.10;;
76210;SDS011;65003;49.518;11.280;2022-12-10T12:04:33;26.77;;;16.90;;
76210;SDS011;65003;49.518;11.280;2022-12-10T12:07:03;31.53;;;18.57;;
76210;SDS011;65003;49.518;11.280;2022-12-10T12:09:38;29.47;;;17.47;;
76210;SDS011;65003;49.518;11.280;2022-12-10T12:12:31;28.67;;;17.77;;
76210;SDS011;65003;49.518;11.280;2022-12-10T12:15:16;27.87;;;17.37;;
76210;SDS011;65003;49.518;11.280;2022-12-10T12:17:43;28.20;;;17.67;;
76210;SDS011;65003;49.518;11.280;2022-12-10T12:22:45;26.70;;;17.67;;
76210;SDS011;65003;49.518;11.280;2022-12-10T12:27:44;34.77;;;20.47;;
76210;SDS011;65003;49.518;11.280;2022-12-10T12:30:14;44.73;;;25.40;;
76210;SDS011;65003;49.518;11.280;2022-12-10T12:32:45;36.23;;;20.33;;
76210;SDS011;65003;49.518;11.280;2022-12-10T12:35:14;31.83;;;18.40;;
76210;SDS011;65003;49.518;11.280;2022-12-10T12:37:46;32.03;;;20.77;;
76210;SDS011;65003;49.518;11.280;2022-12-10T12:40:11;33.43;;;20.30;;
76210;SDS011;65003;49.518;11.280;2022-12-10T12:42:39;34.00;;;22.30;;
76210;SDS011;65003;49.518;11.280;2022-12-10T12:47:48;34.50;;;19.53;;
76210;SDS011;65003;49.518;11.280;2022-12-10T12:50:24;39.07;;;22.23;;
76210;SDS011;65003;49.518;11.280;2022-12-10T12:52:53;39.40;;;23.00;;
76210;SDS011;65003;49.518;11.280;2022-12-10T12:55:26;37.53;;;21.63;;
76210;SDS011;65003;49.518;11.280;2022-12-10T12:57:49;37.03;;;22.73;;
76210;SDS011;65003;49.518;11.280;2022-12-10T13:00:17;36.30;;;21.20;;
76210;SDS011;65003;49.518;11.280;2022-12-10T13:02:47;34.40;;;21.60;;
76210;SDS011;65003;49.518;11.280;2022-12-10T13:05:13;35.27;;;21.23;;
76210;SDS011;65003;49.518;11.280;2022-12-10T13:07:40;37.63;;;22.73;;
76210;SDS011;65003;49.518;11.280;2022-12-10T13:10:10;36.73;;;21.30;;
76210;SDS011;65003;49.518;11.280;2022-12-10T13:13:16;36.27;;;21.63;;
76210;SDS011;65003;49.518;11.280;2022-12-10T13:15:34;37.37;;;21.93;;
76210;SDS011;65003;49.518;11.280;2022-12-10T13:20:49;42.40;;;22.47;;
76210;SDS011;65003;49.518;11.280;2022-12-10T13:25:56;40.73;;;23.30;;
76210;SDS011;65003;49.518;11.280;2022-12-10T13:28:30;38.57;;;22.27;;
76210;SDS011;65003;49.518;11.280;2022-12-10T13:36:11;41.27;;;25.43;;
76210;SDS011;65003;49.518;11.280;2022-12-10T13:38:39;42.07;;;25.70;;
76210;SDS011;65003;49.518;11.280;2022-12-10T13:41:05;43.40;;;26.77;;
76210;SDS011;65003;49.518;11.280;2022-12-10T13:43:37;48.10;;;30.10;;
76210;SDS011;65003;49.518;11.280;2022-12-10T13:48:46;50.00;;;31.23;;
76210;SDS011;65003;49.518;11.280;2022-12-10T13:51:17;63.07;;;37.10;;
76210;SDS011;65003;49.518;11.280;2022-12-10T13:53:50;67.57;;;38.20;;
76210;SDS011;65003;49.518;11.280;2022-12-10T13:56:29;47.60;;;29.80;;
76210;SDS011;65003;49.518;11.280;2022-12-10T14:07:07;52.87;;;31.43;;
76210;SDS011;65003;49.518;11.280;2022-12-10T14:09:33;50.90;;;29.37;;
76210;SDS011;65003;49.518;11.280;2022-12-10T14:12:01;49.53;;;28.40;;
76210;SDS011;65003;49.518;11.280;2022-12-10T14:14:30;41.27;;;23.80;;
76210;SDS011;65003;49.518;11.280;2022-12-10T14:16:59;47.60;;;26.10;;
76210;SDS011;65003;49.518;11.280;2022-12-10T14:19:26;46.37;;;27.90;;
76210;SDS011;65003;49.518;11.280;2022-12-10T14:21:52;37.40;;;23.47;;
76210;SDS011;65003;49.518;11.280;2022-12-10T14:24:37;49.87;;;28.13;;
76210;SDS011;65003;49.518;11.280;2022-12-10T14:27:09;47.73;;;27.27;;
76210;SDS011;65003;49.518;11.280;2022-12-10T14:29:46;46.40;;;25.60;;
76210;SDS011;65003;49.518;11.280;2022-12-10T14:32:14;42.67;;;23.90;;
76210;SDS011;65003;49.518;11.280;2022-12-10T14:34:40;38.97;;;24.90;;
76210;SDS011;65003;49.518;11.280;2022-12-10T14:37:07;36.77;;;22.47;;
76210;SDS011;65003;49.518;11.280;2022-12-10T14:39:33;40.83;;;24.77;;
76210;SDS011;65003;49.518;11.280;2022-12-10T14:42:01;42.43;;;25.70;;
76210;SDS011;65003;49.518;11.280;2022-12-10T14:44:27;41.47;;;24.37;;
76210;SDS011;65003;49.518;11.280;2022-12-10T14:47:04;43.17;;;23.20;;
76210;SDS011;65003;49.518;11.280;2022-12-10T14:49:31;44.77;;;24.30;;
76210;SDS011;65003;49.518;11.280;2022-12-10T14:51:59;44.60;;;24.50;;
76210;SDS011;65003;49.518;11.280;2022-12-10T14:54:26;44.40;;;24.73;;